Corsicana, TX (75110)

5:20 AM CST on January 16, 2018 (GMT -0600)
Bowie - Collins School area | | Change Station
Active Advisory: Winter Storm Warning

Elev 433 ft 32.11 °N, 96.49 °W | Updated 15 seconds ago

Overcast
Overcast
23.5 °F
Feels Like 16 °F
N
5.6
Wind Variable Wind from NW
Gusts 7.4 mph

Today
High -- | Low -- °F
--% Chance of Precip.
Yesterday
High -- | Low -- °F
Precip. -- in
Pressure 30.69 in
Visibility 10.0 miles
Clouds Overcast 6500 ft
Windchill 16 °F
Dew Point 12 °F
Humidity 60%
Rainfall 0.00 in
Snow Depth Not available.
7:26 AM 5:45 PM
Waning Crescent, 0% visible
METAR KCRS 161053Z AUTO 36016G28KT 10SM UP OVC065 M05/M13 A3068 RMK AO2 PK WND 35029/1039 UPB41SNE41B51E52 SLP391 P0000 T10501128 $
Pressure 30.69 in
Visibility 10.0 miles
Clouds Overcast 6500 ft
Windchill 16 °F
Dew Point 12 °F
Humidity 60%
Rainfall 0.00 in
Snow Depth Not available.
7:26 AM 5:45 PM
Waning Crescent, 0% visible
METAR KCRS 161053Z AUTO 36016G28KT 10SM UP OVC065 M05/M13 A3068 RMK AO2 PK WND 35029/1039 UPB41SNE41B51E52 SLP391 P0000 T10501128 $

Get Your Daily Forecast Email!

Thanks for signing up!

Be on the lookout for a verification email in your inbox.

You'll start receiving severe weather alerts in your inbox..

×

10-Day Weather Forecast

Almanac

Astronomy

Jan. 16, 2018 Rise Set
Actual Time
Civil Twilight
Nautical Twilight
Astronomical Twilight
Moon
Length of Visible Light
Length of Day
Tomorrow will be .
, % of the Moon is Illuminated

Today's Extremes

State Highs State Lows

Community

WunderPhotos

Category 6

Welcome to Category 6. This is the collective home for Weather Underground's featured writeups by Dr. Jeff Masters (right), Bob Henson (left), Chris Burt, and other regular contributors.

Nearby

Air Quality

  Air Quality AQ Index Pollutant
Not available.

Snow Depth

Station Depth Elevation

Earthquake Activity

City Distance Mag. Time & Date
Minimum magnitude displayed is 2.5.

Coastal Water Temperatures

Place Temperature

Stations

Nearby Weather Stations

Station Location Temp. Windchill Dew Point Humidity Wind Precip. Elev Updated Type
                   

Watches & Warnings

Winter Storm Warning
Issued: 3:19 AM CST Jan. 16, 2018 – National Weather Service

... Winter Storm Warning now in effect until noon CST today...

* what... continued light snow expected. Plan on difficult travel
conditions, including during the morning commute on Tuesday.
Total snow accumulations of around an inch have occurred.

* Where... locations generally along and southeast of a line from Sulphur
Springs to Waxahachie to Mexia to Cameron.

* When... until noon CST today.

* Additional details... north winds will remain gusty at 20 to 30
mph.

Precautionary/preparedness actions...

A Winter Storm Warning means significant amounts of snow, sleet
and ice are occurring. This will make travel very hazardous or
impossible. The latest Road conditions for Texas can be found at
drivetexas.Org.